CheckWX is a tool to help pilots better visualize weather data.  It is not intended as a substitute for an official pre-flight weather briefing.

07:14:52 UTC

KGCN TAF
Grand Canyon National Park Airport
Grand Canyon, Arizona, USA
KGCN 021120Z 0212/0312 21011G18KT P6SM SKC FM021600 24015G26KT P6SM SKC FM030230 VRB06KT P6SM SKC

Apr-2@
12:00 UTC

Apr-2 @ 12:00 UTC

Apr-2@
16:00 UTC

Apr-2 @ 16:00 UTC

TAF KGCN 021120Z 0212/0312 21011G18KT P6SM SKC

Expired

Wind
  • 210° at 11 KTS
  • {Gusting to 18 KTS
Cloud Levels
  • Clear skies

Apr-2@
16:00 UTC

Apr-2 @ 16:00 UTC

Apr-3@
02:30 UTC

Apr-3 @ 02:30 UTC

FM021600 24015G26KT P6SM SKC

Expired

Wind
  • 240° at 15 KTS
  • {Gusting to 26 KTS
Cloud Levels
  • Clear skies

Apr-3@
02:30 UTC

Apr-3 @ 02:30 UTC

Apr-3@
12:00 UTC

Apr-3 @ 12:00 UTC

FM030230 VRB06KT P6SM SKC

From

From Standard forecast or significant change

Wind
  • Variable at 6 KTS
Cloud Levels
  • Clear skies